sensor_id;sensor_type;location;lat;lon;timestamp;P1;durP1;ratioP1;P2;durP2;ratioP2
25409;SDS011;13339;50.840;4.346;2023-08-12T00:00:16;11.00;;;4.57;;
25409;SDS011;13339;50.840;4.346;2023-08-12T00:02:43;14.20;;;5.23;;
25409;SDS011;13339;50.840;4.346;2023-08-12T00:05:10;11.40;;;5.17;;
25409;SDS011;13339;50.840;4.346;2023-08-12T00:07:36;11.53;;;4.60;;
25409;SDS011;13339;50.840;4.346;2023-08-12T00:10:02;8.33;;;4.93;;
25409;SDS011;13339;50.840;4.346;2023-08-12T00:12:32;9.67;;;5.07;;
25409;SDS011;13339;50.840;4.346;2023-08-12T00:14:58;10.07;;;4.80;;
25409;SDS011;13339;50.840;4.346;2023-08-12T00:17:24;13.97;;;5.50;;
25409;SDS011;13339;50.840;4.346;2023-08-12T00:19:50;8.90;;;4.70;;
25409;SDS011;13339;50.840;4.346;2023-08-12T00:22:15;9.23;;;5.63;;
25409;SDS011;13339;50.840;4.346;2023-08-12T00:24:41;12.00;;;5.03;;
25409;SDS011;13339;50.840;4.346;2023-08-12T00:27:07;10.03;;;5.23;;
25409;SDS011;13339;50.840;4.346;2023-08-12T00:29:34;13.20;;;5.13;;
25409;SDS011;13339;50.840;4.346;2023-08-12T00:32:00;10.13;;;5.43;;
25409;SDS011;13339;50.840;4.346;2023-08-12T00:34:26;13.30;;;5.40;;
25409;SDS011;13339;50.840;4.346;2023-08-12T00:36:52;9.63;;;5.10;;
25409;SDS011;13339;50.840;4.346;2023-08-12T00:39:17;11.53;;;5.70;;
25409;SDS011;13339;50.840;4.346;2023-08-12T00:41:43;10.03;;;5.33;;
25409;SDS011;13339;50.840;4.346;2023-08-12T00:44:08;9.77;;;5.33;;
25409;SDS011;13339;50.840;4.346;2023-08-12T00:46:34;8.60;;;5.00;;
25409;SDS011;13339;50.840;4.346;2023-08-12T00:49:01;11.43;;;5.63;;
25409;SDS011;13339;50.840;4.346;2023-08-12T00:51:27;10.07;;;5.40;;
25409;SDS011;13339;50.840;4.346;2023-08-12T00:53:53;11.43;;;5.57;;
25409;SDS011;13339;50.840;4.346;2023-08-12T00:56:20;8.77;;;5.23;;
25409;SDS011;13339;50.840;4.346;2023-08-12T00:58:46;12.47;;;5.57;;
25409;SDS011;13339;50.840;4.346;2023-08-12T01:01:12;13.23;;;5.53;;
25409;SDS011;13339;50.840;4.346;2023-08-12T01:03:38;13.93;;;6.57;;
25409;SDS011;13339;50.840;4.346;2023-08-12T01:06:04;9.73;;;5.83;;
25409;SDS011;13339;50.840;4.346;2023-08-12T01:08:31;10.50;;;6.00;;
25409;SDS011;13339;50.840;4.346;2023-08-12T01:11:12;15.17;;;6.17;;
25409;SDS011;13339;50.840;4.346;2023-08-12T01:13:46;14.80;;;6.37;;
25409;SDS011;13339;50.840;4.346;2023-08-12T01:16:29;10.63;;;5.67;;
25409;SDS011;13339;50.840;4.346;2023-08-12T01:18:58;12.37;;;6.27;;
25409;SDS011;13339;50.840;4.346;2023-08-12T01:21:25;12.90;;;6.27;;
25409;SDS011;13339;50.840;4.346;2023-08-12T01:23:56;10.30;;;5.83;;
25409;SDS011;13339;50.840;4.346;2023-08-12T01:26:22;16.17;;;6.00;;
25409;SDS011;13339;50.840;4.346;2023-08-12T01:28:47;12.80;;;5.80;;
25409;SDS011;13339;50.840;4.346;2023-08-12T01:31:34;14.87;;;6.27;;
25409;SDS011;13339;50.840;4.346;2023-08-12T01:34:12;13.07;;;6.70;;
25409;SDS011;13339;50.840;4.346;2023-08-12T01:36:46;16.07;;;6.70;;
25409;SDS011;13339;50.840;4.346;2023-08-12T01:39:19;15.33;;;6.27;;
25409;SDS011;13339;50.840;4.346;2023-08-12T01:41:46;10.67;;;5.73;;
25409;SDS011;13339;50.840;4.346;2023-08-12T01:44:12;10.63;;;5.87;;
25409;SDS011;13339;50.840;4.346;2023-08-12T01:46:38;12.67;;;6.30;;
25409;SDS011;13339;50.840;4.346;2023-08-12T01:49:03;9.43;;;6.27;;
25409;SDS011;13339;50.840;4.346;2023-08-12T01:51:29;10.83;;;5.77;;
25409;SDS011;13339;50.840;4.346;2023-08-12T01:53:55;13.10;;;6.20;;
25409;SDS011;13339;50.840;4.346;2023-08-12T01:56:20;13.03;;;6.30;;
25409;SDS011;13339;50.840;4.346;2023-08-12T01:58:46;17.00;;;6.30;;
25409;SDS011;13339;50.840;4.346;2023-08-12T02:01:12;14.27;;;6.43;;
25409;SDS011;13339;50.840;4.346;2023-08-12T02:03:37;10.33;;;6.27;;
25409;SDS011;13339;50.840;4.346;2023-08-12T02:06:03;12.77;;;6.87;;
25409;SDS011;13339;50.840;4.346;2023-08-12T02:08:29;12.90;;;6.63;;
25409;SDS011;13339;50.840;4.346;2023-08-12T02:10:55;15.33;;;7.17;;
25409;SDS011;13339;50.840;4.346;2023-08-12T02:13:20;10.93;;;6.10;;
25409;SDS011;13339;50.840;4.346;2023-08-12T02:15:46;14.03;;;6.43;;
25409;SDS011;13339;50.840;4.346;2023-08-12T02:18:11;11.17;;;6.60;;
25409;SDS011;13339;50.840;4.346;2023-08-12T02:20:37;13.07;;;6.30;;
25409;SDS011;13339;50.840;4.346;2023-08-12T02:23:03;12.23;;;6.17;;
25409;SDS011;13339;50.840;4.346;2023-08-12T02:25:29;10.57;;;5.80;;
25409;SDS011;13339;50.840;4.346;2023-08-12T02:27:55;15.77;;;7.03;;
25409;SDS011;13339;50.840;4.346;2023-08-12T02:30:21;12.03;;;6.17;;
25409;SDS011;13339;50.840;4.346;2023-08-12T02:32:46;10.93;;;7.07;;
25409;SDS011;13339;50.840;4.346;2023-08-12T02:35:12;9.53;;;6.60;;
25409;SDS011;13339;50.840;4.346;2023-08-12T02:37:38;10.33;;;6.80;;
25409;SDS011;13339;50.840;4.346;2023-08-12T02:40:04;13.47;;;6.53;;
25409;SDS011;13339;50.840;4.346;2023-08-12T02:42:30;13.93;;;7.10;;
25409;SDS011;13339;50.840;4.346;2023-08-12T02:44:55;15.17;;;6.83;;
25409;SDS011;13339;50.840;4.346;2023-08-12T02:47:21;13.57;;;7.00;;
25409;SDS011;13339;50.840;4.346;2023-08-12T02:49:47;12.43;;;6.40;;
25409;SDS011;13339;50.840;4.346;2023-08-12T02:52:13;13.80;;;7.00;;
25409;SDS011;13339;50.840;4.346;2023-08-12T02:54:39;12.50;;;6.77;;
25409;SDS011;13339;50.840;4.346;2023-08-12T02:57:04;11.57;;;6.87;;
25409;SDS011;13339;50.840;4.346;2023-08-12T02:59:30;9.90;;;6.77;;
25409;SDS011;13339;50.840;4.346;2023-08-12T03:01:56;12.73;;;6.90;;
25409;SDS011;13339;50.840;4.346;2023-08-12T03:04:21;15.47;;;7.43;;
25409;SDS011;13339;50.840;4.346;2023-08-12T03:06:47;14.37;;;7.10;;
25409;SDS011;13339;50.840;4.346;2023-08-12T03:09:13;16.30;;;7.47;;
25409;SDS011;13339;50.840;4.346;2023-08-12T03:11:39;13.73;;;7.63;;
25409;SDS011;13339;50.840;4.346;2023-08-12T03:14:04;18.23;;;7.63;;
25409;SDS011;13339;50.840;4.346;2023-08-12T03:16:30;12.10;;;7.07;;
25409;SDS011;13339;50.840;4.346;2023-08-12T03:18:56;15.43;;;7.37;;
25409;SDS011;13339;50.840;4.346;2023-08-12T03:21:21;16.60;;;7.80;;
25409;SDS011;13339;50.840;4.346;2023-08-12T03:23:47;12.30;;;7.93;;
25409;SDS011;13339;50.840;4.346;2023-08-12T03:26:13;15.40;;;8.43;;
25409;SDS011;13339;50.840;4.346;2023-08-12T03:28:39;12.23;;;8.47;;
25409;SDS011;13339;50.840;4.346;2023-08-12T03:31:05;15.73;;;7.93;;
25409;SDS011;13339;50.840;4.346;2023-08-12T03:33:30;14.23;;;8.27;;
25409;SDS011;13339;50.840;4.346;2023-08-12T03:35:57;11.30;;;8.10;;
25409;SDS011;13339;50.840;4.346;2023-08-12T03:38:23;14.87;;;8.20;;
25409;SDS011;13339;50.840;4.346;2023-08-12T03:40:49;12.23;;;7.67;;
25409;SDS011;13339;50.840;4.346;2023-08-12T03:43:15;11.50;;;7.23;;
25409;SDS011;13339;50.840;4.346;2023-08-12T03:45:41;12.40;;;8.00;;
25409;SDS011;13339;50.840;4.346;2023-08-12T03:48:07;13.20;;;8.07;;
25409;SDS011;13339;50.840;4.346;2023-08-12T03:50:33;10.73;;;6.37;;
25409;SDS011;13339;50.840;4.346;2023-08-12T03:53:00;5.70;;;5.10;;
25409;SDS011;13339;50.840;4.346;2023-08-12T03:55:26;9.50;;;5.57;;
25409;SDS011;13339;50.840;4.346;2023-08-12T03:57:51;5.57;;;4.80;;
25409;SDS011;13339;50.840;4.346;2023-08-12T04:00:17;6.20;;;4.33;;
25409;SDS011;13339;50.840;4.346;2023-08-12T04:02:43;6.67;;;5.20;;
25409;SDS011;13339;50.840;4.346;2023-08-12T04:05:08;9.47;;;5.17;;
25409;SDS011;13339;50.840;4.346;2023-08-12T04:07:35;6.47;;;4.67;;
25409;SDS011;13339;50.840;4.346;2023-08-12T04:10:02;5.63;;;4.93;;
25409;SDS011;13339;50.840;4.346;2023-08-12T04:12:27;6.47;;;4.80;;
25409;SDS011;13339;50.840;4.346;2023-08-12T04:14:53;7.50;;;4.67;;
25409;SDS011;13339;50.840;4.346;2023-08-12T04:17:19;7.57;;;4.67;;
25409;SDS011;13339;50.840;4.346;2023-08-12T04:19:44;9.60;;;5.10;;
25409;SDS011;13339;50.840;4.346;2023-08-12T04:22:10;5.00;;;4.50;;
25409;SDS011;13339;50.840;4.346;2023-08-12T04:24:35;5.20;;;4.70;;
25409;SDS011;13339;50.840;4.346;2023-08-12T04:27:01;4.80;;;4.33;;
25409;SDS011;13339;50.840;4.346;2023-08-12T04:29:27;5.47;;;4.50;;
25409;SDS011;13339;50.840;4.346;2023-08-12T04:31:52;5.10;;;4.60;;
25409;SDS011;13339;50.840;4.346;2023-08-12T04:34:18;6.47;;;4.90;;
25409;SDS011;13339;50.840;4.346;2023-08-12T04:36:44;4.67;;;4.27;;
25409;SDS011;13339;50.840;4.346;2023-08-12T04:39:09;5.40;;;4.63;;
25409;SDS011;13339;50.840;4.346;2023-08-12T04:41:35;5.17;;;4.67;;
25409;SDS011;13339;50.840;4.346;2023-08-12T04:44:03;6.00;;;4.30;;
25409;SDS011;13339;50.840;4.346;2023-08-12T04:46:29;4.60;;;3.87;;
25409;SDS011;13339;50.840;4.346;2023-08-12T04:48:55;4.67;;;4.17;;
25409;SDS011;13339;50.840;4.346;2023-08-12T04:51:21;5.93;;;3.67;;
25409;SDS011;13339;50.840;4.346;2023-08-12T04:53:46;4.20;;;3.90;;
25409;SDS011;13339;50.840;4.346;2023-08-12T04:56:12;4.87;;;4.10;;
25409;SDS011;13339;50.840;4.346;2023-08-12T04:58:38;5.60;;;4.10;;
25409;SDS011;13339;50.840;4.346;2023-08-12T05:01:04;4.77;;;4.37;;
25409;SDS011;13339;50.840;4.346;2023-08-12T05:03:29;4.90;;;4.50;;
25409;SDS011;13339;50.840;4.346;2023-08-12T05:05:55;5.20;;;4.63;;
25409;SDS011;13339;50.840;4.346;2023-08-12T05:08:20;4.93;;;4.40;;
25409;SDS011;13339;50.840;4.346;2023-08-12T05:10:47;6.97;;;5.07;;
25409;SDS011;13339;50.840;4.346;2023-08-12T05:13:13;5.50;;;5.03;;
25409;SDS011;13339;50.840;4.346;2023-08-12T05:15:39;5.90;;;5.30;;
25409;SDS011;13339;50.840;4.346;2023-08-12T05:18:05;8.43;;;6.27;;
25409;SDS011;13339;50.840;4.346;2023-08-12T05:20:31;8.00;;;5.80;;
25409;SDS011;13339;50.840;4.346;2023-08-12T05:22:57;7.00;;;5.77;;
25409;SDS011;13339;50.840;4.346;2023-08-12T05:25:22;7.20;;;6.00;;
25409;SDS011;13339;50.840;4.346;2023-08-12T05:27:49;7.33;;;6.63;;
25409;SDS011;13339;50.840;4.346;2023-08-12T05:30:15;9.40;;;6.30;;
25409;SDS011;13339;50.840;4.346;2023-08-12T05:32:40;7.93;;;6.80;;
25409;SDS011;13339;50.840;4.346;2023-08-12T05:35:06;6.73;;;6.13;;
25409;SDS011;13339;50.840;4.346;2023-08-12T05:37:32;7.80;;;7.03;;
25409;SDS011;13339;50.840;4.346;2023-08-12T05:39:58;9.30;;;7.60;;
25409;SDS011;13339;50.840;4.346;2023-08-12T05:42:24;9.60;;;7.47;;
25409;SDS011;13339;50.840;4.346;2023-08-12T05:44:49;8.67;;;7.77;;
25409;SDS011;13339;50.840;4.346;2023-08-12T05:47:15;10.30;;;7.63;;
25409;SDS011;13339;50.840;4.346;2023-08-12T05:49:40;9.10;;;8.20;;
25409;SDS011;13339;50.840;4.346;2023-08-12T05:52:07;8.50;;;7.60;;
25409;SDS011;13339;50.840;4.346;2023-08-12T05:54:33;10.70;;;7.93;;
25409;SDS011;13339;50.840;4.346;2023-08-12T05:56:58;9.03;;;8.13;;
25409;SDS011;13339;50.840;4.346;2023-08-12T05:59:24;8.70;;;7.80;;
25409;SDS011;13339;50.840;4.346;2023-08-12T06:01:50;8.37;;;7.67;;
25409;SDS011;13339;50.840;4.346;2023-08-12T06:04:15;8.87;;;7.63;;
25409;SDS011;13339;50.840;4.346;2023-08-12T06:06:41;8.10;;;7.40;;
25409;SDS011;13339;50.840;4.346;2023-08-12T06:09:07;8.93;;;7.10;;
25409;SDS011;13339;50.840;4.346;2023-08-12T06:11:33;8.43;;;7.10;;
25409;SDS011;13339;50.840;4.346;2023-08-12T06:13:58;8.63;;;6.60;;
25409;SDS011;13339;50.840;4.346;2023-08-12T06:16:24;8.67;;;6.80;;
25409;SDS011;13339;50.840;4.346;2023-08-12T06:18:50;7.37;;;6.67;;
25409;SDS011;13339;50.840;4.346;2023-08-12T06:21:15;8.80;;;6.60;;
25409;SDS011;13339;50.840;4.346;2023-08-12T06:23:41;7.47;;;6.27;;
25409;SDS011;13339;50.840;4.346;2023-08-12T06:26:06;7.63;;;6.93;;
25409;SDS011;13339;50.840;4.346;2023-08-12T06:28:32;7.33;;;6.60;;
25409;SDS011;13339;50.840;4.346;2023-08-12T06:30:58;6.67;;;5.97;;
25409;SDS011;13339;50.840;4.346;2023-08-12T06:33:23;9.00;;;6.80;;
25409;SDS011;13339;50.840;4.346;2023-08-12T06:35:50;7.10;;;6.27;;
25409;SDS011;13339;50.840;4.346;2023-08-12T06:38:16;7.97;;;6.83;;
25409;SDS011;13339;50.840;4.346;2023-08-12T06:40:41;6.70;;;6.03;;
25409;SDS011;13339;50.840;4.346;2023-08-12T06:43:07;7.63;;;6.10;;
25409;SDS011;13339;50.840;4.346;2023-08-12T06:45:33;6.10;;;5.50;;
25409;SDS011;13339;50.840;4.346;2023-08-12T06:47:59;6.90;;;5.63;;
25409;SDS011;13339;50.840;4.346;2023-08-12T06:50:27;6.33;;;5.13;;
25409;SDS011;13339;50.840;4.346;2023-08-12T06:52:53;5.90;;;4.70;;
25409;SDS011;13339;50.840;4.346;2023-08-12T06:55:18;6.67;;;4.60;;
25409;SDS011;13339;50.840;4.346;2023-08-12T06:57:44;7.17;;;4.10;;
25409;SDS011;13339;50.840;4.346;2023-08-12T07:00:10;4.93;;;3.97;;
25409;SDS011;13339;50.840;4.346;2023-08-12T07:02:36;4.57;;;3.83;;
25409;SDS011;13339;50.840;4.346;2023-08-12T07:05:02;6.23;;;3.90;;
25409;SDS011;13339;50.840;4.346;2023-08-12T07:07:28;5.23;;;4.10;;
25409;SDS011;13339;50.840;4.346;2023-08-12T07:09:53;6.37;;;5.77;;
25409;SDS011;13339;50.840;4.346;2023-08-12T07:12:19;8.67;;;7.87;;
25409;SDS011;13339;50.840;4.346;2023-08-12T07:14:45;10.77;;;9.77;;
25409;SDS011;13339;50.840;4.346;2023-08-12T07:17:10;13.57;;;12.37;;
25409;SDS011;13339;50.840;4.346;2023-08-12T07:19:36;16.37;;;14.20;;
25409;SDS011;13339;50.840;4.346;2023-08-12T07:22:01;15.53;;;14.00;;
25409;SDS011;13339;50.840;4.346;2023-08-12T07:24:27;16.80;;;15.20;;
25409;SDS011;13339;50.840;4.346;2023-08-12T07:26:53;17.03;;;15.30;;
25409;SDS011;13339;50.840;4.346;2023-08-12T07:29:19;16.80;;;15.00;;
25409;SDS011;13339;50.840;4.346;2023-08-12T07:31:44;16.67;;;15.07;;
25409;SDS011;13339;50.840;4.346;2023-08-12T07:34:10;14.13;;;12.87;;
25409;SDS011;13339;50.840;4.346;2023-08-12T07:36:38;14.37;;;13.07;;
25409;SDS011;13339;50.840;4.346;2023-08-12T07:39:05;13.00;;;11.40;;
25409;SDS011;13339;50.840;4.346;2023-08-12T07:41:31;12.73;;;11.53;;
25409;SDS011;13339;50.840;4.346;2023-08-12T07:43:57;11.80;;;10.70;;
25409;SDS011;13339;50.840;4.346;2023-08-12T07:46:22;13.30;;;12.00;;
25409;SDS011;13339;50.840;4.346;2023-08-12T07:48:48;12.80;;;11.70;;
25409;SDS011;13339;50.840;4.346;2023-08-12T07:51:14;13.90;;;12.37;;
25409;SDS011;13339;50.840;4.346;2023-08-12T07:53:40;14.80;;;13.40;;
25409;SDS011;13339;50.840;4.346;2023-08-12T07:56:05;14.63;;;13.10;;
25409;SDS011;13339;50.840;4.346;2023-08-12T07:58:31;15.63;;;14.13;;
25409;SDS011;13339;50.840;4.346;2023-08-12T08:00:57;16.27;;;14.63;;
25409;SDS011;13339;50.840;4.346;2023-08-12T08:03:22;13.90;;;12.57;;
25409;SDS011;13339;50.840;4.346;2023-08-12T08:05:48;13.03;;;11.83;;
25409;SDS011;13339;50.840;4.346;2023-08-12T08:08:14;12.00;;;11.00;;
25409;SDS011;13339;50.840;4.346;2023-08-12T08:10:40;10.93;;;10.03;;
25409;SDS011;13339;50.840;4.346;2023-08-12T08:13:05;8.80;;;8.10;;
25409;SDS011;13339;50.840;4.346;2023-08-12T08:15:31;10.10;;;9.10;;
25409;SDS011;13339;50.840;4.346;2023-08-12T08:17:56;10.00;;;8.60;;
25409;SDS011;13339;50.840;4.346;2023-08-12T08:20:22;8.90;;;8.20;;
25409;SDS011;13339;50.840;4.346;2023-08-12T08:22:48;8.87;;;8.17;;
25409;SDS011;13339;50.840;4.346;2023-08-12T08:25:13;14.00;;;8.70;;
25409;SDS011;13339;50.840;4.346;2023-08-12T08:27:39;9.57;;;8.67;;
25409;SDS011;13339;50.840;4.346;2023-08-12T08:30:06;7.00;;;6.30;;
25409;SDS011;13339;50.840;4.346;2023-08-12T08:32:32;6.43;;;5.57;;
25409;SDS011;13339;50.840;4.346;2023-08-12T08:34:58;6.03;;;5.43;;
25409;SDS011;13339;50.840;4.346;2023-08-12T08:37:24;4.30;;;3.90;;
25409;SDS011;13339;50.840;4.346;2023-08-12T08:39:49;3.80;;;3.50;;
25409;SDS011;13339;50.840;4.346;2023-08-12T08:42:15;3.40;;;2.57;;
25409;SDS011;13339;50.840;4.346;2023-08-12T08:44:45;5.37;;;2.90;;
25409;SDS011;13339;50.840;4.346;2023-08-12T08:47:14;2.80;;;2.60;;
25409;SDS011;13339;50.840;4.346;2023-08-12T08:49:44;6.03;;;2.47;;
25409;SDS011;13339;50.840;4.346;2023-08-12T08:52:10;4.87;;;2.17;;
25409;SDS011;13339;50.840;4.346;2023-08-12T08:54:37;3.80;;;2.50;;
25409;SDS011;13339;50.840;4.346;2023-08-12T08:57:04;4.57;;;2.87;;
25409;SDS011;13339;50.840;4.346;2023-08-12T08:59:30;4.23;;;2.60;;
25409;SDS011;13339;50.840;4.346;2023-08-12T09:01:56;3.07;;;2.40;;
25409;SDS011;13339;50.840;4.346;2023-08-12T09:04:24;4.20;;;2.27;;
25409;SDS011;13339;50.840;4.346;2023-08-12T09:06:54;5.37;;;2.23;;
25409;SDS011;13339;50.840;4.346;2023-08-12T09:09:21;4.40;;;2.50;;
25409;SDS011;13339;50.840;4.346;2023-08-12T09:11:48;3.70;;;2.20;;
25409;SDS011;13339;50.840;4.346;2023-08-12T09:14:15;3.80;;;2.47;;
25409;SDS011;13339;50.840;4.346;2023-08-12T09:16:40;6.20;;;2.03;;
25409;SDS011;13339;50.840;4.346;2023-08-12T09:19:06;6.57;;;2.87;;
25409;SDS011;13339;50.840;4.346;2023-08-12T09:21:32;7.47;;;2.20;;
25409;SDS011;13339;50.840;4.346;2023-08-12T09:23:57;4.70;;;2.17;;
25409;SDS011;13339;50.840;4.346;2023-08-12T09:26:29;5.53;;;2.23;;
25409;SDS011;13339;50.840;4.346;2023-08-12T09:28:55;3.47;;;2.20;;
25409;SDS011;13339;50.840;4.346;2023-08-12T09:31:24;5.37;;;2.10;;
25409;SDS011;13339;50.840;4.346;2023-08-12T09:33:52;5.63;;;2.20;;
25409;SDS011;13339;50.840;4.346;2023-08-12T09:36:17;4.57;;;2.10;;
25409;SDS011;13339;50.840;4.346;2023-08-12T09:38:44;4.40;;;1.97;;
25409;SDS011;13339;50.840;4.346;2023-08-12T09:41:10;5.30;;;1.80;;
25409;SDS011;13339;50.840;4.346;2023-08-12T09:43:39;6.47;;;2.17;;
25409;SDS011;13339;50.840;4.346;2023-08-12T09:46:11;4.80;;;2.00;;
25409;SDS011;13339;50.840;4.346;2023-08-12T09:48:38;3.20;;;2.00;;
25409;SDS011;13339;50.840;4.346;2023-08-12T09:51:06;4.43;;;1.70;;
25409;SDS011;13339;50.840;4.346;2023-08-12T09:53:33;6.50;;;2.17;;
25409;SDS011;13339;50.840;4.346;2023-08-12T09:56:06;5.10;;;1.50;;
25409;SDS011;13339;50.840;4.346;2023-08-12T09:58:33;5.27;;;1.80;;
25409;SDS011;13339;50.840;4.346;2023-08-12T10:01:02;4.10;;;1.53;;
25409;SDS011;13339;50.840;4.346;2023-08-12T10:03:32;3.27;;;1.43;;
25409;SDS011;13339;50.840;4.346;2023-08-12T10:05:58;7.47;;;2.77;;
25409;SDS011;13339;50.840;4.346;2023-08-12T10:08:26;3.40;;;1.77;;
25409;SDS011;13339;50.840;4.346;2023-08-12T10:10:52;5.37;;;2.30;;
25409;SDS011;13339;50.840;4.346;2023-08-12T10:13:18;3.87;;;1.93;;
25409;SDS011;13339;50.840;4.346;2023-08-12T10:15:45;5.97;;;1.90;;
25409;SDS011;13339;50.840;4.346;2023-08-12T10:18:12;7.47;;;2.10;;
25409;SDS011;13339;50.840;4.346;2023-08-12T10:20:38;4.77;;;2.10;;
25409;SDS011;13339;50.840;4.346;2023-08-12T10:23:07;5.27;;;1.70;;
25409;SDS011;13339;50.840;4.346;2023-08-12T10:25:39;6.00;;;1.80;;
25409;SDS011;13339;50.840;4.346;2023-08-12T10:28:07;3.93;;;1.93;;
25409;SDS011;13339;50.840;4.346;2023-08-12T10:30:33;4.25;;;2.05;;
25409;SDS011;13339;50.840;4.346;2023-08-12T10:32:59;7.37;;;2.30;;
25409;SDS011;13339;50.840;4.346;2023-08-12T10:35:44;7.27;;;2.00;;
25409;SDS011;13339;50.840;4.346;2023-08-12T10:38:11;4.17;;;2.30;;
25409;SDS011;13339;50.840;4.346;2023-08-12T10:40:39;5.47;;;2.30;;
25409;SDS011;13339;50.840;4.346;2023-08-12T10:43:05;7.80;;;2.40;;
25409;SDS011;13339;50.840;4.346;2023-08-12T10:45:44;7.88;;;2.38;;
25409;SDS011;13339;50.840;4.346;2023-08-12T10:48:21;9.13;;;1.90;;
25409;SDS011;13339;50.840;4.346;2023-08-12T10:50:49;5.13;;;2.20;;
25409;SDS011;13339;50.840;4.346;2023-08-12T10:53:33;5.57;;;2.00;;
25409;SDS011;13339;50.840;4.346;2023-08-12T10:56:03;5.10;;;2.20;;
25409;SDS011;13339;50.840;4.346;2023-08-12T10:58:45;4.50;;;1.90;;
25409;SDS011;13339;50.840;4.346;2023-08-12T11:01:21;3.80;;;2.13;;
25409;SDS011;13339;50.840;4.346;2023-08-12T11:03:48;6.50;;;2.10;;
25409;SDS011;13339;50.840;4.346;2023-08-12T11:06:15;6.85;;;1.90;;
25409;SDS011;13339;50.840;4.346;2023-08-12T11:08:53;7.40;;;2.57;;
25409;SDS011;13339;50.840;4.346;2023-08-12T11:11:19;5.95;;;1.92;;
25409;SDS011;13339;50.840;4.346;2023-08-12T11:13:53;4.97;;;2.20;;
25409;SDS011;13339;50.840;4.346;2023-08-12T11:16:19;3.47;;;1.70;;
25409;SDS011;13339;50.840;4.346;2023-08-12T11:19:07;8.23;;;1.80;;
25409;SDS011;13339;50.840;4.346;2023-08-12T11:21:35;7.00;;;2.27;;
25409;SDS011;13339;50.840;4.346;2023-08-12T11:24:01;7.73;;;2.67;;
25409;SDS011;13339;50.840;4.346;2023-08-12T11:26:28;8.47;;;2.37;;
25409;SDS011;13339;50.840;4.346;2023-08-12T11:28:53;5.73;;;2.17;;
25409;SDS011;13339;50.840;4.346;2023-08-12T11:31:19;9.90;;;1.90;;
25409;SDS011;13339;50.840;4.346;2023-08-12T11:33:46;5.63;;;1.80;;
25409;SDS011;13339;50.840;4.346;2023-08-12T11:36:13;5.30;;;1.60;;
25409;SDS011;13339;50.840;4.346;2023-08-12T11:38:40;6.13;;;1.60;;
25409;SDS011;13339;50.840;4.346;2023-08-12T11:41:07;5.57;;;2.10;;
25409;SDS011;13339;50.840;4.346;2023-08-12T11:43:32;4.43;;;1.92;;
25409;SDS011;13339;50.840;4.346;2023-08-12T11:45:58;4.37;;;1.77;;
25409;SDS011;13339;50.840;4.346;2023-08-12T11:48:26;4.30;;;2.17;;
25409;SDS011;13339;50.840;4.346;2023-08-12T11:50:52;5.18;;;2.40;;
25409;SDS011;13339;50.840;4.346;2023-08-12T11:53:19;3.38;;;1.80;;
25409;SDS011;13339;50.840;4.346;2023-08-12T11:55:45;3.97;;;1.80;;
25409;SDS011;13339;50.840;4.346;2023-08-12T11:58:11;7.85;;;1.98;;
25409;SDS011;13339;50.840;4.346;2023-08-12T12:00:38;7.43;;;1.90;;
25409;SDS011;13339;50.840;4.346;2023-08-12T12:03:05;6.25;;;2.45;;
25409;SDS011;13339;50.840;4.346;2023-08-12T12:05:31;7.10;;;2.22;;
25409;SDS011;13339;50.840;4.346;2023-08-12T12:07:59;5.70;;;2.58;;
25409;SDS011;13339;50.840;4.346;2023-08-12T12:10:27;6.82;;;2.13;;
25409;SDS011;13339;50.840;4.346;2023-08-12T12:12:57;4.57;;;1.92;;
25409;SDS011;13339;50.840;4.346;2023-08-12T12:15:24;6.82;;;1.92;;
25409;SDS011;13339;50.840;4.346;2023-08-12T12:17:50;4.50;;;1.83;;
25409;SDS011;13339;50.840;4.346;2023-08-12T12:20:16;9.57;;;2.00;;
25409;SDS011;13339;50.840;4.346;2023-08-12T12:22:43;4.50;;;2.22;;
25409;SDS011;13339;50.840;4.346;2023-08-12T12:25:11;6.75;;;2.30;;
25409;SDS011;13339;50.840;4.346;2023-08-12T12:27:38;5.65;;;2.20;;
25409;SDS011;13339;50.840;4.346;2023-08-12T12:30:07;5.90;;;2.08;;
25409;SDS011;13339;50.840;4.346;2023-08-12T12:32:35;7.82;;;1.98;;
25409;SDS011;13339;50.840;4.346;2023-08-12T12:35:01;7.43;;;2.30;;
25409;SDS011;13339;50.840;4.346;2023-08-12T12:37:28;5.72;;;2.03;;
25409;SDS011;13339;50.840;4.346;2023-08-12T12:39:54;4.60;;;1.88;;
25409;SDS011;13339;50.840;4.346;2023-08-12T12:42:20;5.32;;;2.30;;
25409;SDS011;13339;50.840;4.346;2023-08-12T12:44:45;5.63;;;2.30;;
25409;SDS011;13339;50.840;4.346;2023-08-12T12:47:11;6.95;;;2.00;;
25409;SDS011;13339;50.840;4.346;2023-08-12T12:49:37;5.30;;;2.13;;
25409;SDS011;13339;50.840;4.346;2023-08-12T12:52:04;7.88;;;2.28;;
25409;SDS011;13339;50.840;4.346;2023-08-12T12:54:29;10.48;;;3.45;;
25409;SDS011;13339;50.840;4.346;2023-08-12T12:56:56;4.82;;;2.85;;
25409;SDS011;13339;50.840;4.346;2023-08-12T12:59:21;8.15;;;3.33;;
25409;SDS011;13339;50.840;4.346;2023-08-12T13:01:48;6.40;;;3.00;;
25409;SDS011;13339;50.840;4.346;2023-08-12T13:04:13;3.45;;;2.33;;
25409;SDS011;13339;50.840;4.346;2023-08-12T13:06:39;5.47;;;2.70;;
25409;SDS011;13339;50.840;4.346;2023-08-12T13:09:05;8.23;;;2.55;;
25409;SDS011;13339;50.840;4.346;2023-08-12T13:11:31;4.90;;;2.70;;
25409;SDS011;13339;50.840;4.346;2023-08-12T13:14:02;6.63;;;2.88;;
25409;SDS011;13339;50.840;4.346;2023-08-12T13:16:28;6.28;;;3.10;;
25409;SDS011;13339;50.840;4.346;2023-08-12T13:18:54;4.60;;;2.45;;
25409;SDS011;13339;50.840;4.346;2023-08-12T13:21:20;5.90;;;2.35;;
25409;SDS011;13339;50.840;4.346;2023-08-12T13:23:46;5.80;;;2.67;;
25409;SDS011;13339;50.840;4.346;2023-08-12T13:26:12;4.88;;;2.22;;
25409;SDS011;13339;50.840;4.346;2023-08-12T13:28:38;4.25;;;2.30;;
25409;SDS011;13339;50.840;4.346;2023-08-12T13:31:03;8.25;;;2.67;;
25409;SDS011;13339;50.840;4.346;2023-08-12T13:33:29;6.30;;;2.40;;
25409;SDS011;13339;50.840;4.346;2023-08-12T13:35:54;3.90;;;1.90;;
25409;SDS011;13339;50.840;4.346;2023-08-12T13:38:20;5.50;;;2.00;;
25409;SDS011;13339;50.840;4.346;2023-08-12T13:40:46;3.47;;;2.08;;
25409;SDS011;13339;50.840;4.346;2023-08-12T13:43:12;5.90;;;2.10;;
25409;SDS011;13339;50.840;4.346;2023-08-12T13:45:38;7.60;;;2.25;;
25409;SDS011;13339;50.840;4.346;2023-08-12T13:48:03;5.13;;;1.90;;
25409;SDS011;13339;50.840;4.346;2023-08-12T13:50:30;9.32;;;2.10;;
25409;SDS011;13339;50.840;4.346;2023-08-12T13:52:58;9.20;;;2.97;;
25409;SDS011;13339;50.840;4.346;2023-08-12T13:55:26;6.78;;;2.10;;
25409;SDS011;13339;50.840;4.346;2023-08-12T13:57:52;3.55;;;2.30;;
25409;SDS011;13339;50.840;4.346;2023-08-12T14:00:18;6.90;;;2.67;;
25409;SDS011;13339;50.840;4.346;2023-08-12T14:02:44;6.18;;;2.30;;
25409;SDS011;13339;50.840;4.346;2023-08-12T14:05:10;6.78;;;2.30;;
25409;SDS011;13339;50.840;4.346;2023-08-12T14:07:36;5.63;;;2.10;;
25409;SDS011;13339;50.840;4.346;2023-08-12T14:10:02;5.43;;;2.22;;
25409;SDS011;13339;50.840;4.346;2023-08-12T14:12:28;7.28;;;2.30;;
25409;SDS011;13339;50.840;4.346;2023-08-12T14:14:54;9.35;;;2.30;;
25409;SDS011;13339;50.840;4.346;2023-08-12T14:17:20;7.43;;;2.17;;
25409;SDS011;13339;50.840;4.346;2023-08-12T14:19:48;5.40;;;1.80;;
25409;SDS011;13339;50.840;4.346;2023-08-12T14:22:15;8.85;;;2.28;;
25409;SDS011;13339;50.840;4.346;2023-08-12T14:24:40;7.40;;;2.40;;
25409;SDS011;13339;50.840;4.346;2023-08-12T14:27:07;5.68;;;2.25;;
25409;SDS011;13339;50.840;4.346;2023-08-12T14:29:33;5.28;;;2.40;;
25409;SDS011;13339;50.840;4.346;2023-08-12T14:31:59;3.95;;;2.03;;
25409;SDS011;13339;50.840;4.346;2023-08-12T14:34:24;4.85;;;2.30;;
25409;SDS011;13339;50.840;4.346;2023-08-12T14:36:50;7.85;;;2.28;;
25409;SDS011;13339;50.840;4.346;2023-08-12T14:39:15;4.10;;;1.88;;